sensor_id;sensor_type;location;lat;lon;timestamp;P1;durP1;ratioP1;P2;durP2;ratioP2
16689;SDS011;8458;52.220;9.884;2023-01-10T00:01:53;10.13;;;9.33;;
16689;SDS011;8458;52.220;9.884;2023-01-10T00:04:21;10.87;;;10.07;;
16689;SDS011;8458;52.220;9.884;2023-01-10T00:06:47;12.63;;;10.13;;
16689;SDS011;8458;52.220;9.884;2023-01-10T00:09:14;10.93;;;10.13;;
16689;SDS011;8458;52.220;9.884;2023-01-10T00:11:40;11.93;;;10.83;;
16689;SDS011;8458;52.220;9.884;2023-01-10T00:14:25;11.47;;;10.67;;
16689;SDS011;8458;52.220;9.884;2023-01-10T00:16:54;12.47;;;11.33;;
16689;SDS011;8458;52.220;9.884;2023-01-10T00:19:21;12.23;;;11.27;;
16689;SDS011;8458;52.220;9.884;2023-01-10T00:21:47;12.30;;;11.30;;
16689;SDS011;8458;52.220;9.884;2023-01-10T00:24:14;12.80;;;12.00;;
16689;SDS011;8458;52.220;9.884;2023-01-10T00:26:43;12.87;;;11.97;;
16689;SDS011;8458;52.220;9.884;2023-01-10T00:29:15;13.10;;;12.20;;
16689;SDS011;8458;52.220;9.884;2023-01-10T00:31:42;12.63;;;11.67;;
16689;SDS011;8458;52.220;9.884;2023-01-10T00:34:09;12.30;;;11.30;;
16689;SDS011;8458;52.220;9.884;2023-01-10T00:36:36;12.17;;;11.23;;
16689;SDS011;8458;52.220;9.884;2023-01-10T00:39:02;12.47;;;11.57;;
16689;SDS011;8458;52.220;9.884;2023-01-10T00:41:33;11.90;;;11.00;;
16689;SDS011;8458;52.220;9.884;2023-01-10T00:44:17;11.63;;;10.73;;
16689;SDS011;8458;52.220;9.884;2023-01-10T00:46:44;11.80;;;11.00;;
16689;SDS011;8458;52.220;9.884;2023-01-10T00:49:11;11.83;;;11.03;;
16689;SDS011;8458;52.220;9.884;2023-01-10T00:51:40;12.10;;;11.23;;
16689;SDS011;8458;52.220;9.884;2023-01-10T00:54:07;12.23;;;11.20;;
16689;SDS011;8458;52.220;9.884;2023-01-10T00:56:34;12.37;;;11.63;;
16689;SDS011;8458;52.220;9.884;2023-01-10T00:59:00;11.70;;;11.00;;
16689;SDS011;8458;52.220;9.884;2023-01-10T01:01:27;11.83;;;11.07;;
16689;SDS011;8458;52.220;9.884;2023-01-10T01:03:53;11.13;;;10.43;;
16689;SDS011;8458;52.220;9.884;2023-01-10T01:06:21;10.70;;;9.87;;
16689;SDS011;8458;52.220;9.884;2023-01-10T01:08:48;11.17;;;10.37;;
16689;SDS011;8458;52.220;9.884;2023-01-10T01:11:14;10.70;;;9.90;;
16689;SDS011;8458;52.220;9.884;2023-01-10T01:13:41;9.90;;;9.20;;
16689;SDS011;8458;52.220;9.884;2023-01-10T01:16:07;9.93;;;9.33;;
16689;SDS011;8458;52.220;9.884;2023-01-10T01:18:34;10.87;;;10.07;;
16689;SDS011;8458;52.220;9.884;2023-01-10T01:21:00;10.33;;;9.47;;
16689;SDS011;8458;52.220;9.884;2023-01-10T01:23:31;10.10;;;9.40;;
16689;SDS011;8458;52.220;9.884;2023-01-10T01:25:59;10.40;;;9.70;;
16689;SDS011;8458;52.220;9.884;2023-01-10T01:28:26;10.10;;;9.40;;
16689;SDS011;8458;52.220;9.884;2023-01-10T01:30:53;9.67;;;8.97;;
16689;SDS011;8458;52.220;9.884;2023-01-10T01:33:19;9.70;;;8.90;;
16689;SDS011;8458;52.220;9.884;2023-01-10T01:35:46;9.90;;;9.20;;
16689;SDS011;8458;52.220;9.884;2023-01-10T01:38:14;10.30;;;9.70;;
16689;SDS011;8458;52.220;9.884;2023-01-10T01:40:42;10.80;;;10.00;;
16689;SDS011;8458;52.220;9.884;2023-01-10T01:43:17;10.53;;;9.77;;
16689;SDS011;8458;52.220;9.884;2023-01-10T01:45:47;9.37;;;8.77;;
16689;SDS011;8458;52.220;9.884;2023-01-10T01:48:22;9.63;;;8.83;;
16689;SDS011;8458;52.220;9.884;2023-01-10T01:50:57;9.87;;;9.10;;
16689;SDS011;8458;52.220;9.884;2023-01-10T01:53:30;8.80;;;8.20;;
16689;SDS011;8458;52.220;9.884;2023-01-10T01:56:02;8.93;;;8.33;;
16689;SDS011;8458;52.220;9.884;2023-01-10T01:58:34;9.33;;;8.63;;
16689;SDS011;8458;52.220;9.884;2023-01-10T02:01:06;8.40;;;7.73;;
16689;SDS011;8458;52.220;9.884;2023-01-10T02:03:33;7.67;;;7.17;;
16689;SDS011;8458;52.220;9.884;2023-01-10T02:06:00;8.50;;;7.80;;
16689;SDS011;8458;52.220;9.884;2023-01-10T02:08:27;8.40;;;7.20;;
16689;SDS011;8458;52.220;9.884;2023-01-10T02:10:54;7.43;;;6.83;;
16689;SDS011;8458;52.220;9.884;2023-01-10T02:13:28;8.67;;;8.07;;
16689;SDS011;8458;52.220;9.884;2023-01-10T02:15:56;7.43;;;6.93;;
16689;SDS011;8458;52.220;9.884;2023-01-10T02:18:22;7.57;;;7.07;;
16689;SDS011;8458;52.220;9.884;2023-01-10T02:20:57;6.87;;;6.40;;
16689;SDS011;8458;52.220;9.884;2023-01-10T02:23:50;7.00;;;6.50;;
16689;SDS011;8458;52.220;9.884;2023-01-10T02:26:57;7.30;;;6.70;;
16689;SDS011;8458;52.220;9.884;2023-01-10T02:29:40;6.27;;;5.77;;
16689;SDS011;8458;52.220;9.884;2023-01-10T02:32:27;6.70;;;6.20;;
16689;SDS011;8458;52.220;9.884;2023-01-10T02:35:04;6.40;;;5.93;;
16689;SDS011;8458;52.220;9.884;2023-01-10T02:37:44;6.37;;;5.87;;
16689;SDS011;8458;52.220;9.884;2023-01-10T02:40:23;6.03;;;5.53;;
16689;SDS011;8458;52.220;9.884;2023-01-10T02:42:57;6.13;;;5.63;;
16689;SDS011;8458;52.220;9.884;2023-01-10T02:45:32;6.73;;;6.23;;
16689;SDS011;8458;52.220;9.884;2023-01-10T02:48:04;7.30;;;6.70;;
16689;SDS011;8458;52.220;9.884;2023-01-10T02:50:42;7.27;;;6.67;;
16689;SDS011;8458;52.220;9.884;2023-01-10T02:53:15;6.77;;;6.27;;
16689;SDS011;8458;52.220;9.884;2023-01-10T02:55:51;7.37;;;6.80;;
16689;SDS011;8458;52.220;9.884;2023-01-10T02:58:29;7.40;;;6.80;;
16689;SDS011;8458;52.220;9.884;2023-01-10T03:01:05;7.40;;;6.80;;
16689;SDS011;8458;52.220;9.884;2023-01-10T03:03:44;7.70;;;7.07;;
16689;SDS011;8458;52.220;9.884;2023-01-10T03:06:19;7.60;;;6.90;;
16689;SDS011;8458;52.220;9.884;2023-01-10T03:08:50;8.00;;;7.23;;
16689;SDS011;8458;52.220;9.884;2023-01-10T03:11:24;6.97;;;6.37;;
16689;SDS011;8458;52.220;9.884;2023-01-10T03:14:05;6.87;;;5.67;;
16689;SDS011;8458;52.220;9.884;2023-01-10T03:16:36;6.93;;;5.67;;
16689;SDS011;8458;52.220;9.884;2023-01-10T03:19:08;5.07;;;4.60;;
16689;SDS011;8458;52.220;9.884;2023-01-10T03:21:38;5.20;;;4.50;;
16689;SDS011;8458;52.220;9.884;2023-01-10T03:24:08;6.70;;;4.20;;
16689;SDS011;8458;52.220;9.884;2023-01-10T03:26:41;4.43;;;3.73;;
16689;SDS011;8458;52.220;9.884;2023-01-10T03:29:13;3.93;;;3.53;;
16689;SDS011;8458;52.220;9.884;2023-01-10T03:31:44;5.00;;;3.23;;
16689;SDS011;8458;52.220;9.884;2023-01-10T03:34:17;3.53;;;2.80;;
16689;SDS011;8458;52.220;9.884;2023-01-10T03:36:44;2.90;;;2.00;;
16689;SDS011;8458;52.220;9.884;2023-01-10T03:39:18;4.70;;;2.00;;
16689;SDS011;8458;52.220;9.884;2023-01-10T03:41:51;4.03;;;1.63;;
16689;SDS011;8458;52.220;9.884;2023-01-10T03:44:29;7.20;;;1.50;;
16689;SDS011;8458;52.220;9.884;2023-01-10T03:47:12;3.00;;;1.37;;
16689;SDS011;8458;52.220;9.884;2023-01-10T03:49:45;2.93;;;1.40;;
16689;SDS011;8458;52.220;9.884;2023-01-10T03:52:15;3.37;;;1.77;;
16689;SDS011;8458;52.220;9.884;2023-01-10T03:54:44;3.60;;;1.30;;
16689;SDS011;8458;52.220;9.884;2023-01-10T03:57:15;4.13;;;1.40;;
16689;SDS011;8458;52.220;9.884;2023-01-10T03:59:43;2.37;;;1.37;;
16689;SDS011;8458;52.220;9.884;2023-01-10T04:02:09;4.13;;;2.00;;
16689;SDS011;8458;52.220;9.884;2023-01-10T04:04:36;2.57;;;1.90;;
16689;SDS011;8458;52.220;9.884;2023-01-10T04:07:06;3.53;;;1.70;;
16689;SDS011;8458;52.220;9.884;2023-01-10T04:09:32;4.80;;;2.10;;
16689;SDS011;8458;52.220;9.884;2023-01-10T04:11:59;4.50;;;2.00;;
16689;SDS011;8458;52.220;9.884;2023-01-10T04:14:26;5.93;;;2.10;;
16689;SDS011;8458;52.220;9.884;2023-01-10T04:16:54;4.57;;;2.33;;
16689;SDS011;8458;52.220;9.884;2023-01-10T04:19:20;4.97;;;2.10;;
16689;SDS011;8458;52.220;9.884;2023-01-10T04:21:47;4.43;;;1.80;;
16689;SDS011;8458;52.220;9.884;2023-01-10T04:24:14;5.57;;;2.20;;
16689;SDS011;8458;52.220;9.884;2023-01-10T04:26:41;4.33;;;2.00;;
16689;SDS011;8458;52.220;9.884;2023-01-10T04:29:07;4.50;;;2.70;;
16689;SDS011;8458;52.220;9.884;2023-01-10T04:31:34;9.33;;;2.27;;
16689;SDS011;8458;52.220;9.884;2023-01-10T04:34:00;5.37;;;2.30;;
16689;SDS011;8458;52.220;9.884;2023-01-10T04:36:27;3.80;;;2.17;;
16689;SDS011;8458;52.220;9.884;2023-01-10T04:38:53;5.20;;;2.43;;
16689;SDS011;8458;52.220;9.884;2023-01-10T04:41:21;5.90;;;2.40;;
16689;SDS011;8458;52.220;9.884;2023-01-10T04:43:48;6.73;;;2.63;;
16689;SDS011;8458;52.220;9.884;2023-01-10T04:46:14;5.13;;;2.40;;
16689;SDS011;8458;52.220;9.884;2023-01-10T04:48:41;5.77;;;2.47;;
16689;SDS011;8458;52.220;9.884;2023-01-10T04:51:07;4.67;;;2.03;;
16689;SDS011;8458;52.220;9.884;2023-01-10T04:53:34;5.57;;;2.20;;
16689;SDS011;8458;52.220;9.884;2023-01-10T04:56:01;4.33;;;2.30;;
16689;SDS011;8458;52.220;9.884;2023-01-10T04:58:30;3.57;;;2.60;;
16689;SDS011;8458;52.220;9.884;2023-01-10T05:00:57;8.17;;;2.83;;
16689;SDS011;8458;52.220;9.884;2023-01-10T05:03:24;6.50;;;3.27;;
16689;SDS011;8458;52.220;9.884;2023-01-10T05:05:50;4.53;;;2.63;;
16689;SDS011;8458;52.220;9.884;2023-01-10T05:08:17;7.00;;;2.80;;
16689;SDS011;8458;52.220;9.884;2023-01-10T05:10:44;5.20;;;2.70;;
16689;SDS011;8458;52.220;9.884;2023-01-10T05:13:10;4.33;;;2.50;;
16689;SDS011;8458;52.220;9.884;2023-01-10T05:15:38;11.47;;;3.50;;
16689;SDS011;8458;52.220;9.884;2023-01-10T05:18:04;7.40;;;2.93;;
16689;SDS011;8458;52.220;9.884;2023-01-10T05:20:31;4.83;;;2.70;;
16689;SDS011;8458;52.220;9.884;2023-01-10T05:22:57;5.13;;;2.77;;
16689;SDS011;8458;52.220;9.884;2023-01-10T05:25:23;4.67;;;2.50;;
16689;SDS011;8458;52.220;9.884;2023-01-10T05:27:50;6.10;;;2.50;;
16689;SDS011;8458;52.220;9.884;2023-01-10T05:30:17;9.67;;;2.90;;
16689;SDS011;8458;52.220;9.884;2023-01-10T05:32:44;4.90;;;2.90;;
16689;SDS011;8458;52.220;9.884;2023-01-10T05:35:11;4.83;;;2.90;;
16689;SDS011;8458;52.220;9.884;2023-01-10T05:37:37;5.00;;;3.27;;
16689;SDS011;8458;52.220;9.884;2023-01-10T05:40:05;6.47;;;2.67;;
16689;SDS011;8458;52.220;9.884;2023-01-10T05:42:32;6.43;;;2.67;;
16689;SDS011;8458;52.220;9.884;2023-01-10T05:44:59;5.60;;;3.30;;
16689;SDS011;8458;52.220;9.884;2023-01-10T05:47:25;9.80;;;3.30;;
16689;SDS011;8458;52.220;9.884;2023-01-10T05:49:53;6.43;;;3.37;;
16689;SDS011;8458;52.220;9.884;2023-01-10T05:52:19;6.93;;;2.93;;
16689;SDS011;8458;52.220;9.884;2023-01-10T05:54:46;7.77;;;3.70;;
16689;SDS011;8458;52.220;9.884;2023-01-10T05:57:12;7.70;;;3.63;;
16689;SDS011;8458;52.220;9.884;2023-01-10T05:59:39;8.53;;;3.70;;
16689;SDS011;8458;52.220;9.884;2023-01-10T06:02:05;7.33;;;3.73;;
16689;SDS011;8458;52.220;9.884;2023-01-10T06:04:32;6.97;;;3.60;;
16689;SDS011;8458;52.220;9.884;2023-01-10T06:07:00;6.47;;;3.90;;
16689;SDS011;8458;52.220;9.884;2023-01-10T06:09:26;5.93;;;3.87;;
16689;SDS011;8458;52.220;9.884;2023-01-10T06:11:53;7.67;;;4.03;;
16689;SDS011;8458;52.220;9.884;2023-01-10T06:14:19;10.30;;;4.07;;
16689;SDS011;8458;52.220;9.884;2023-01-10T06:16:45;7.03;;;4.63;;
16689;SDS011;8458;52.220;9.884;2023-01-10T06:19:12;9.93;;;4.67;;
16689;SDS011;8458;52.220;9.884;2023-01-10T06:21:38;7.83;;;4.83;;
16689;SDS011;8458;52.220;9.884;2023-01-10T06:24:07;8.77;;;5.07;;
16689;SDS011;8458;52.220;9.884;2023-01-10T06:26:34;8.57;;;4.63;;
16689;SDS011;8458;52.220;9.884;2023-01-10T06:29:00;6.63;;;4.83;;
16689;SDS011;8458;52.220;9.884;2023-01-10T06:31:27;11.40;;;5.20;;
16689;SDS011;8458;52.220;9.884;2023-01-10T06:33:53;9.37;;;4.67;;
16689;SDS011;8458;52.220;9.884;2023-01-10T06:36:20;8.67;;;4.90;;
16689;SDS011;8458;52.220;9.884;2023-01-10T06:38:46;5.20;;;4.33;;
16689;SDS011;8458;52.220;9.884;2023-01-10T06:41:14;9.90;;;5.30;;
16689;SDS011;8458;52.220;9.884;2023-01-10T06:43:41;8.63;;;5.40;;
16689;SDS011;8458;52.220;9.884;2023-01-10T06:46:09;6.90;;;4.87;;
16689;SDS011;8458;52.220;9.884;2023-01-10T06:48:36;8.57;;;4.70;;
16689;SDS011;8458;52.220;9.884;2023-01-10T06:51:03;7.00;;;5.60;;
16689;SDS011;8458;52.220;9.884;2023-01-10T06:53:30;6.43;;;5.23;;
16689;SDS011;8458;52.220;9.884;2023-01-10T06:55:57;8.87;;;5.43;;
16689;SDS011;8458;52.220;9.884;2023-01-10T06:58:25;11.97;;;5.27;;
16689;SDS011;8458;52.220;9.884;2023-01-10T07:00:51;9.03;;;5.63;;
16689;SDS011;8458;52.220;9.884;2023-01-10T07:03:18;7.40;;;5.77;;
16689;SDS011;8458;52.220;9.884;2023-01-10T07:05:44;7.43;;;4.90;;
16689;SDS011;8458;52.220;9.884;2023-01-10T07:08:11;6.57;;;5.07;;
16689;SDS011;8458;52.220;9.884;2023-01-10T07:10:38;9.07;;;5.63;;
16689;SDS011;8458;52.220;9.884;2023-01-10T07:13:05;7.37;;;5.53;;
16689;SDS011;8458;52.220;9.884;2023-01-10T07:15:33;12.87;;;6.23;;
16689;SDS011;8458;52.220;9.884;2023-01-10T07:17:59;8.97;;;5.37;;
16689;SDS011;8458;52.220;9.884;2023-01-10T07:20:26;6.63;;;5.17;;
16689;SDS011;8458;52.220;9.884;2023-01-10T07:22:53;7.67;;;6.07;;
16689;SDS011;8458;52.220;9.884;2023-01-10T07:25:20;9.33;;;5.87;;
16689;SDS011;8458;52.220;9.884;2023-01-10T07:27:46;11.47;;;7.00;;
16689;SDS011;8458;52.220;9.884;2023-01-10T07:30:13;8.10;;;7.30;;
16689;SDS011;8458;52.220;9.884;2023-01-10T07:32:41;9.00;;;6.77;;
16689;SDS011;8458;52.220;9.884;2023-01-10T07:35:08;8.30;;;6.47;;
16689;SDS011;8458;52.220;9.884;2023-01-10T07:37:34;8.73;;;6.83;;
16689;SDS011;8458;52.220;9.884;2023-01-10T07:40:01;12.03;;;7.83;;
16689;SDS011;8458;52.220;9.884;2023-01-10T07:42:27;7.80;;;6.73;;
16689;SDS011;8458;52.220;9.884;2023-01-10T07:44:54;10.93;;;7.40;;
16689;SDS011;8458;52.220;9.884;2023-01-10T07:47:20;9.93;;;7.13;;
16689;SDS011;8458;52.220;9.884;2023-01-10T07:49:48;8.73;;;7.70;;
16689;SDS011;8458;52.220;9.884;2023-01-10T07:52:14;8.37;;;7.20;;
16689;SDS011;8458;52.220;9.884;2023-01-10T07:54:41;9.53;;;7.53;;
16689;SDS011;8458;52.220;9.884;2023-01-10T07:57:07;8.57;;;7.67;;
16689;SDS011;8458;52.220;9.884;2023-01-10T07:59:34;9.20;;;7.13;;
16689;SDS011;8458;52.220;9.884;2023-01-10T08:02:00;10.00;;;7.70;;
16689;SDS011;8458;52.220;9.884;2023-01-10T08:04:27;13.73;;;7.10;;
16689;SDS011;8458;52.220;9.884;2023-01-10T08:06:54;7.70;;;6.90;;
16689;SDS011;8458;52.220;9.884;2023-01-10T08:09:21;7.53;;;6.57;;
16689;SDS011;8458;52.220;9.884;2023-01-10T08:11:47;7.73;;;6.93;;
16689;SDS011;8458;52.220;9.884;2023-01-10T08:14:14;8.00;;;7.07;;
16689;SDS011;8458;52.220;9.884;2023-01-10T08:16:40;7.87;;;6.70;;
16689;SDS011;8458;52.220;9.884;2023-01-10T08:19:07;7.63;;;6.70;;
16689;SDS011;8458;52.220;9.884;2023-01-10T08:21:33;9.30;;;7.27;;
16689;SDS011;8458;52.220;9.884;2023-01-10T08:24:01;6.73;;;6.10;;
16689;SDS011;8458;52.220;9.884;2023-01-10T08:26:27;10.33;;;6.03;;
16689;SDS011;8458;52.220;9.884;2023-01-10T08:28:54;10.77;;;6.20;;
16689;SDS011;8458;52.220;9.884;2023-01-10T08:31:20;8.77;;;6.23;;
16689;SDS011;8458;52.220;9.884;2023-01-10T08:33:46;8.77;;;6.30;;
16689;SDS011;8458;52.220;9.884;2023-01-10T08:36:13;7.33;;;6.30;;
16689;SDS011;8458;52.220;9.884;2023-01-10T08:38:41;6.23;;;5.20;;
16689;SDS011;8458;52.220;9.884;2023-01-10T08:41:09;7.67;;;5.50;;
16689;SDS011;8458;52.220;9.884;2023-01-10T08:43:35;8.20;;;5.70;;
16689;SDS011;8458;52.220;9.884;2023-01-10T08:46:01;9.30;;;5.63;;
16689;SDS011;8458;52.220;9.884;2023-01-10T08:48:28;7.70;;;6.03;;
16689;SDS011;8458;52.220;9.884;2023-01-10T08:50:54;11.47;;;7.17;;
16689;SDS011;8458;52.220;9.884;2023-01-10T08:53:21;7.93;;;6.53;;
16689;SDS011;8458;52.220;9.884;2023-01-10T08:55:47;9.77;;;6.07;;
16689;SDS011;8458;52.220;9.884;2023-01-10T08:58:16;6.77;;;6.17;;
16689;SDS011;8458;52.220;9.884;2023-01-10T09:00:42;7.03;;;6.20;;
16689;SDS011;8458;52.220;9.884;2023-01-10T09:03:09;6.07;;;5.03;;
16689;SDS011;8458;52.220;9.884;2023-01-10T09:05:35;6.47;;;4.87;;
16689;SDS011;8458;52.220;9.884;2023-01-10T09:08:02;8.67;;;6.27;;
16689;SDS011;8458;52.220;9.884;2023-01-10T09:10:29;8.57;;;6.33;;
16689;SDS011;8458;52.220;9.884;2023-01-10T09:12:56;10.07;;;7.40;;
16689;SDS011;8458;52.220;9.884;2023-01-10T09:15:27;10.33;;;6.73;;
16689;SDS011;8458;52.220;9.884;2023-01-10T09:17:55;8.83;;;6.27;;
16689;SDS011;8458;52.220;9.884;2023-01-10T09:20:23;8.40;;;6.73;;
16689;SDS011;8458;52.220;9.884;2023-01-10T09:22:51;7.40;;;6.03;;
16689;SDS011;8458;52.220;9.884;2023-01-10T09:25:18;8.07;;;6.80;;
16689;SDS011;8458;52.220;9.884;2023-01-10T09:27:46;7.00;;;6.30;;
16689;SDS011;8458;52.220;9.884;2023-01-10T09:30:12;7.53;;;6.70;;
16689;SDS011;8458;52.220;9.884;2023-01-10T09:32:41;8.53;;;6.60;;
16689;SDS011;8458;52.220;9.884;2023-01-10T09:35:07;9.30;;;6.53;;
16689;SDS011;8458;52.220;9.884;2023-01-10T09:37:34;7.43;;;6.07;;
16689;SDS011;8458;52.220;9.884;2023-01-10T09:40:02;8.37;;;5.93;;
16689;SDS011;8458;52.220;9.884;2023-01-10T09:42:34;7.00;;;4.83;;
16689;SDS011;8458;52.220;9.884;2023-01-10T09:45:14;6.87;;;4.80;;
16689;SDS011;8458;52.220;9.884;2023-01-10T09:47:47;7.70;;;5.03;;
16689;SDS011;8458;52.220;9.884;2023-01-10T09:50:20;9.90;;;5.27;;
16689;SDS011;8458;52.220;9.884;2023-01-10T09:52:54;10.87;;;5.87;;
16689;SDS011;8458;52.220;9.884;2023-01-10T09:55:24;7.97;;;6.03;;
16689;SDS011;8458;52.220;9.884;2023-01-10T09:57:53;7.70;;;5.90;;
16689;SDS011;8458;52.220;9.884;2023-01-10T10:00:23;6.87;;;5.57;;
16689;SDS011;8458;52.220;9.884;2023-01-10T10:02:59;9.33;;;5.50;;
16689;SDS011;8458;52.220;9.884;2023-01-10T10:05:29;9.57;;;6.57;;
16689;SDS011;8458;52.220;9.884;2023-01-10T10:07:56;10.40;;;5.53;;
16689;SDS011;8458;52.220;9.884;2023-01-10T10:10:27;12.50;;;5.80;;
16689;SDS011;8458;52.220;9.884;2023-01-10T10:13:06;6.00;;;5.20;;
16689;SDS011;8458;52.220;9.884;2023-01-10T10:15:41;15.17;;;7.10;;
16689;SDS011;8458;52.220;9.884;2023-01-10T10:18:17;11.07;;;8.00;;
16689;SDS011;8458;52.220;9.884;2023-01-10T10:20:56;11.93;;;7.47;;
16689;SDS011;8458;52.220;9.884;2023-01-10T10:26:26;10.73;;;8.60;;
16689;SDS011;8458;52.220;9.884;2023-01-10T10:29:02;12.67;;;8.40;;
16689;SDS011;8458;52.220;9.884;2023-01-10T10:31:42;8.93;;;7.70;;
16689;SDS011;8458;52.220;9.884;2023-01-10T10:34:22;12.37;;;8.37;;
16689;SDS011;8458;52.220;9.884;2023-01-10T10:36:58;8.60;;;6.53;;
16689;SDS011;8458;52.220;9.884;2023-01-10T10:39:30;8.43;;;7.27;;
16689;SDS011;8458;52.220;9.884;2023-01-10T10:42:00;11.17;;;7.00;;
16689;SDS011;8458;52.220;9.884;2023-01-10T10:44:31;10.57;;;7.47;;
16689;SDS011;8458;52.220;9.884;2023-01-10T10:47:02;9.17;;;6.97;;
16689;SDS011;8458;52.220;9.884;2023-01-10T10:49:41;7.83;;;6.40;;
16689;SDS011;8458;52.220;9.884;2023-01-10T10:52:16;9.23;;;5.80;;
16689;SDS011;8458;52.220;9.884;2023-01-10T10:54:48;8.17;;;5.70;;
16689;SDS011;8458;52.220;9.884;2023-01-10T10:57:14;8.63;;;5.70;;
16689;SDS011;8458;52.220;9.884;2023-01-10T10:59:41;6.43;;;5.23;;
16689;SDS011;8458;52.220;9.884;2023-01-10T11:02:17;7.17;;;5.43;;
16689;SDS011;8458;52.220;9.884;2023-01-10T11:04:50;8.07;;;4.97;;
16689;SDS011;8458;52.220;9.884;2023-01-10T11:07:18;8.80;;;5.60;;
16689;SDS011;8458;52.220;9.884;2023-01-10T11:09:45;9.50;;;5.27;;
16689;SDS011;8458;52.220;9.884;2023-01-10T11:12:16;7.37;;;5.90;;
16689;SDS011;8458;52.220;9.884;2023-01-10T11:14:45;9.17;;;5.80;;
16689;SDS011;8458;52.220;9.884;2023-01-10T11:17:16;7.63;;;4.83;;
16689;SDS011;8458;52.220;9.884;2023-01-10T11:19:54;7.03;;;5.20;;
16689;SDS011;8458;52.220;9.884;2023-01-10T11:22:22;9.60;;;5.47;;
16689;SDS011;8458;52.220;9.884;2023-01-10T11:24:50;7.47;;;5.20;;
16689;SDS011;8458;52.220;9.884;2023-01-10T11:27:20;14.00;;;5.90;;
16689;SDS011;8458;52.220;9.884;2023-01-10T11:29:49;9.87;;;5.97;;
16689;SDS011;8458;52.220;9.884;2023-01-10T11:32:18;9.40;;;5.70;;
16689;SDS011;8458;52.220;9.884;2023-01-10T11:34:48;8.93;;;5.97;;
16689;SDS011;8458;52.220;9.884;2023-01-10T11:37:20;10.60;;;5.77;;
16689;SDS011;8458;52.220;9.884;2023-01-10T11:39:52;10.43;;;5.60;;
16689;SDS011;8458;52.220;9.884;2023-01-10T11:42:39;11.13;;;5.90;;
16689;SDS011;8458;52.220;9.884;2023-01-10T11:45:28;10.80;;;5.47;;
16689;SDS011;8458;52.220;9.884;2023-01-10T11:48:02;10.50;;;5.30;;
16689;SDS011;8458;52.220;9.884;2023-01-10T11:50:34;8.87;;;5.47;;
16689;SDS011;8458;52.220;9.884;2023-01-10T11:53:04;8.37;;;5.07;;
16689;SDS011;8458;52.220;9.884;2023-01-10T11:55:32;9.83;;;6.30;;
16689;SDS011;8458;52.220;9.884;2023-01-10T11:58:02;7.97;;;5.20;;
16689;SDS011;8458;52.220;9.884;2023-01-10T12:00:32;11.03;;;5.23;;
16689;SDS011;8458;52.220;9.884;2023-01-10T12:03:14;7.43;;;4.67;;
16689;SDS011;8458;52.220;9.884;2023-01-10T12:05:50;9.20;;;5.07;;
16689;SDS011;8458;52.220;9.884;2023-01-10T12:08:23;8.17;;;4.93;;
16689;SDS011;8458;52.220;9.884;2023-01-10T12:11:01;13.90;;;4.60;;
16689;SDS011;8458;52.220;9.884;2023-01-10T12:13:30;8.40;;;4.13;;
16689;SDS011;8458;52.220;9.884;2023-01-10T12:16:16;9.73;;;4.57;;
16689;SDS011;8458;52.220;9.884;2023-01-10T12:18:46;6.63;;;4.50;;
16689;SDS011;8458;52.220;9.884;2023-01-10T12:21:14;8.60;;;4.30;;
16689;SDS011;8458;52.220;9.884;2023-01-10T12:23:44;10.70;;;4.57;;
16689;SDS011;8458;52.220;9.884;2023-01-10T12:26:13;8.40;;;4.07;;
16689;SDS011;8458;52.220;9.884;2023-01-10T12:28:41;13.00;;;4.80;;
16689;SDS011;8458;52.220;9.884;2023-01-10T12:31:13;8.20;;;4.20;;
16689;SDS011;8458;52.220;9.884;2023-01-10T12:33:42;7.10;;;4.23;;
16689;SDS011;8458;52.220;9.884;2023-01-10T12:36:25;11.63;;;4.83;;
16689;SDS011;8458;52.220;9.884;2023-01-10T12:39:02;12.40;;;4.53;;
16689;SDS011;8458;52.220;9.884;2023-01-10T12:41:42;7.17;;;4.17;;
16689;SDS011;8458;52.220;9.884;2023-01-10T12:44:34;7.53;;;3.73;;
16689;SDS011;8458;52.220;9.884;2023-01-10T12:47:04;8.43;;;3.60;;
16689;SDS011;8458;52.220;9.884;2023-01-10T12:49:41;11.40;;;4.30;;
16689;SDS011;8458;52.220;9.884;2023-01-10T12:52:11;11.40;;;4.37;;
16689;SDS011;8458;52.220;9.884;2023-01-10T12:54:45;9.00;;;4.63;;
16689;SDS011;8458;52.220;9.884;2023-01-10T12:57:15;7.23;;;3.87;;
16689;SDS011;8458;52.220;9.884;2023-01-10T12:59:49;9.87;;;5.40;;
16689;SDS011;8458;52.220;9.884;2023-01-10T13:02:17;9.57;;;4.13;;
16689;SDS011;8458;52.220;9.884;2023-01-10T13:04:48;9.63;;;5.10;;
16689;SDS011;8458;52.220;9.884;2023-01-10T13:07:18;11.90;;;5.40;;
16689;SDS011;8458;52.220;9.884;2023-01-10T13:09:47;11.90;;;4.73;;
16689;SDS011;8458;52.220;9.884;2023-01-10T13:12:16;14.07;;;5.20;;
16689;SDS011;8458;52.220;9.884;2023-01-10T13:14:49;9.73;;;4.47;;
16689;SDS011;8458;52.220;9.884;2023-01-10T13:17:27;8.67;;;4.77;;
16689;SDS011;8458;52.220;9.884;2023-01-10T13:20:17;8.93;;;4.77;;
16689;SDS011;8458;52.220;9.884;2023-01-10T13:22:55;7.40;;;4.23;;
16689;SDS011;8458;52.220;9.884;2023-01-10T13:25:25;9.93;;;4.83;;
16689;SDS011;8458;52.220;9.884;2023-01-10T13:27:56;9.10;;;4.00;;
16689;SDS011;8458;52.220;9.884;2023-01-10T13:30:24;9.97;;;3.70;;
16689;SDS011;8458;52.220;9.884;2023-01-10T13:32:55;7.90;;;4.37;;
16689;SDS011;8458;52.220;9.884;2023-01-10T13:35:26;11.13;;;3.93;;
16689;SDS011;8458;52.220;9.884;2023-01-10T13:37:53;7.83;;;3.63;;
16689;SDS011;8458;52.220;9.884;2023-01-10T13:40:22;8.07;;;3.50;;
16689;SDS011;8458;52.220;9.884;2023-01-10T13:57:53;8.07;;;3.23;;
16689;SDS011;8458;52.220;9.884;2023-01-10T14:00:22;8.13;;;3.23;;
16689;SDS011;8458;52.220;9.884;2023-01-10T14:06:10;8.57;;;3.83;;
16689;SDS011;8458;52.220;9.884;2023-01-10T14:08:39;6.43;;;2.73;;
16689;SDS011;8458;52.220;9.884;2023-01-10T14:11:12;5.60;;;3.23;;
16689;SDS011;8458;52.220;9.884;2023-01-10T14:13:42;6.30;;;3.00;;
16689;SDS011;8458;52.220;9.884;2023-01-10T14:16:32;5.83;;;3.10;;
16689;SDS011;8458;52.220;9.884;2023-01-10T14:19:01;8.00;;;3.37;;
16689;SDS011;8458;52.220;9.884;2023-01-10T14:21:30;6.33;;;3.10;;
16689;SDS011;8458;52.220;9.884;2023-01-10T14:24:03;6.90;;;3.70;;
16689;SDS011;8458;52.220;9.884;2023-01-10T14:26:30;7.50;;;3.67;;
16689;SDS011;8458;52.220;9.884;2023-01-10T14:29:01;7.80;;;3.63;;
16689;SDS011;8458;52.220;9.884;2023-01-10T14:31:32;9.27;;;3.10;;
16689;SDS011;8458;52.220;9.884;2023-01-10T14:34:02;7.30;;;3.70;;
16689;SDS011;8458;52.220;9.884;2023-01-10T14:36:36;7.20;;;2.73;;
16689;SDS011;8458;52.220;9.884;2023-01-10T14:39:06;5.70;;;2.63;;
16689;SDS011;8458;52.220;9.884;2023-01-10T14:41:40;5.77;;;3.10;;
16689;SDS011;8458;52.220;9.884;2023-01-10T14:44:12;5.80;;;2.90;;
16689;SDS011;8458;52.220;9.884;2023-01-10T14:46:45;5.60;;;2.77;;
16689;SDS011;8458;52.220;9.884;2023-01-10T14:49:19;5.23;;;3.07;;
16689;SDS011;8458;52.220;9.884;2023-01-10T14:51:48;8.17;;;3.40;;
16689;SDS011;8458;52.220;9.884;2023-01-10T14:54:16;4.13;;;2.87;;
16689;SDS011;8458;52.220;9.884;2023-01-10T14:56:48;7.63;;;3.23;;
16689;SDS011;8458;52.220;9.884;2023-01-10T14:59:19;5.20;;;2.50;;
16689;SDS011;8458;52.220;9.884;2023-01-10T15:01:48;4.37;;;2.30;;
16689;SDS011;8458;52.220;9.884;2023-01-10T15:04:17;5.63;;;2.90;;
16689;SDS011;8458;52.220;9.884;2023-01-10T15:06:52;7.23;;;2.83;;
16689;SDS011;8458;52.220;9.884;2023-01-10T15:09:20;4.50;;;2.60;;
16689;SDS011;8458;52.220;9.884;2023-01-10T15:11:47;6.67;;;2.80;;
16689;SDS011;8458;52.220;9.884;2023-01-10T15:14:14;5.43;;;2.67;;
16689;SDS011;8458;52.220;9.884;2023-01-10T15:16:44;6.13;;;2.70;;
16689;SDS011;8458;52.220;9.884;2023-01-10T15:19:14;6.37;;;2.70;;
16689;SDS011;8458;52.220;9.884;2023-01-10T15:21:44;7.43;;;2.43;;
16689;SDS011;8458;52.220;9.884;2023-01-10T15:24:22;8.87;;;2.70;;
16689;SDS011;8458;52.220;9.884;2023-01-10T15:26:50;4.30;;;2.53;;
16689;SDS011;8458;52.220;9.884;2023-01-10T15:29:18;5.63;;;2.50;;
16689;SDS011;8458;52.220;9.884;2023-01-10T15:31:49;8.47;;;2.40;;
16689;SDS011;8458;52.220;9.884;2023-01-10T15:34:18;4.20;;;2.17;;
16689;SDS011;8458;52.220;9.884;2023-01-10T15:36:47;8.73;;;2.30;;